sensor_id;sensor_type;location;lat;lon;timestamp;temperature;humidity
20594;DHT22;10455;48.732;10.266;2023-03-16T00:04:16;-2.90;99.90
20594;DHT22;10455;48.732;10.266;2023-03-16T00:09:18;-3.00;99.90
20594;DHT22;10455;48.732;10.266;2023-03-16T00:14:20;-2.80;99.90
20594;DHT22;10455;48.732;10.266;2023-03-16T00:19:24;-2.90;99.90
20594;DHT22;10455;48.732;10.266;2023-03-16T00:24:26;-3.00;99.90
20594;DHT22;10455;48.732;10.266;2023-03-16T00:29:28;-3.00;99.90
20594;DHT22;10455;48.732;10.266;2023-03-16T00:34:35;-3.00;99.90
20594;DHT22;10455;48.732;10.266;2023-03-16T00:39:37;-2.60;99.90
20594;DHT22;10455;48.732;10.266;2023-03-16T00:44:39;-2.50;99.90
20594;DHT22;10455;48.732;10.266;2023-03-16T00:49:43;-2.40;99.90
20594;DHT22;10455;48.732;10.266;2023-03-16T00:54:46;-2.30;99.90
20594;DHT22;10455;48.732;10.266;2023-03-16T00:59:48;-2.30;99.90
20594;DHT22;10455;48.732;10.266;2023-03-16T01:04:52;-2.50;99.90
20594;DHT22;10455;48.732;10.266;2023-03-16T01:09:55;-2.80;99.90
20594;DHT22;10455;48.732;10.266;2023-03-16T01:14:57;-2.70;99.90
20594;DHT22;10455;48.732;10.266;2023-03-16T01:20:01;-2.70;99.90
20594;DHT22;10455;48.732;10.266;2023-03-16T01:25:09;-2.60;99.90
20594;DHT22;10455;48.732;10.266;2023-03-16T01:30:12;-2.40;99.90
20594;DHT22;10455;48.732;10.266;2023-03-16T01:35:15;-2.40;99.90
20594;DHT22;10455;48.732;10.266;2023-03-16T01:40:17;-2.60;99.90
20594;DHT22;10455;48.732;10.266;2023-03-16T01:50:59;-2.70;99.90
20594;DHT22;10455;48.732;10.266;2023-03-16T01:56:02;-2.90;99.90
20594;DHT22;10455;48.732;10.266;2023-03-16T02:01:07;-3.10;99.90
20594;DHT22;10455;48.732;10.266;2023-03-16T02:06:12;-3.20;99.90
20594;DHT22;10455;48.732;10.266;2023-03-16T02:11:16;-3.20;99.90
20594;DHT22;10455;48.732;10.266;2023-03-16T02:16:18;-3.20;99.90
20594;DHT22;10455;48.732;10.266;2023-03-16T02:21:28;-3.10;99.90
20594;DHT22;10455;48.732;10.266;2023-03-16T02:26:39;-3.20;99.90
20594;DHT22;10455;48.732;10.266;2023-03-16T02:31:45;-3.00;99.90
20594;DHT22;10455;48.732;10.266;2023-03-16T02:36:49;-2.90;99.90
20594;DHT22;10455;48.732;10.266;2023-03-16T02:41:52;-2.70;99.90
20594;DHT22;10455;48.732;10.266;2023-03-16T02:47:00;-2.50;99.90
20594;DHT22;10455;48.732;10.266;2023-03-16T02:52:03;-2.50;99.90
20594;DHT22;10455;48.732;10.266;2023-03-16T02:57:05;-2.40;99.90
20594;DHT22;10455;48.732;10.266;2023-03-16T03:02:09;-2.30;99.90
20594;DHT22;10455;48.732;10.266;2023-03-16T03:07:11;-2.20;99.90
20594;DHT22;10455;48.732;10.266;2023-03-16T03:12:13;-2.10;99.90
20594;DHT22;10455;48.732;10.266;2023-03-16T03:17:17;-1.90;99.90
20594;DHT22;10455;48.732;10.266;2023-03-16T03:22:18;-1.60;99.90
20594;DHT22;10455;48.732;10.266;2023-03-16T03:27:20;-1.70;99.90
20594;DHT22;10455;48.732;10.266;2023-03-16T03:32:25;-1.60;99.90
20594;DHT22;10455;48.732;10.266;2023-03-16T03:37:27;-1.50;99.90
20594;DHT22;10455;48.732;10.266;2023-03-16T03:42:29;-1.30;99.90
20594;DHT22;10455;48.732;10.266;2023-03-16T03:47:32;-1.40;99.90
20594;DHT22;10455;48.732;10.266;2023-03-16T03:52:34;-1.50;99.90
20594;DHT22;10455;48.732;10.266;2023-03-16T03:57:36;-1.50;99.90
20594;DHT22;10455;48.732;10.266;2023-03-16T04:02:39;-1.60;99.90
20594;DHT22;10455;48.732;10.266;2023-03-16T04:07:41;-1.70;99.90
20594;DHT22;10455;48.732;10.266;2023-03-16T04:12:46;-1.90;99.90
20594;DHT22;10455;48.732;10.266;2023-03-16T04:17:50;-2.10;99.90
20594;DHT22;10455;48.732;10.266;2023-03-16T04:22:52;-2.20;99.90
20594;DHT22;10455;48.732;10.266;2023-03-16T04:27:58;-2.40;99.90
20594;DHT22;10455;48.732;10.266;2023-03-16T04:33:01;-2.40;99.90
20594;DHT22;10455;48.732;10.266;2023-03-16T04:38:03;-2.40;99.90
20594;DHT22;10455;48.732;10.266;2023-03-16T04:43:05;-2.40;99.90
20594;DHT22;10455;48.732;10.266;2023-03-16T04:48:08;-2.60;99.90
20594;DHT22;10455;48.732;10.266;2023-03-16T04:53:10;-2.70;99.90
20594;DHT22;10455;48.732;10.266;2023-03-16T04:58:12;-2.80;99.90
20594;DHT22;10455;48.732;10.266;2023-03-16T05:03:16;-2.80;99.90
20594;DHT22;10455;48.732;10.266;2023-03-16T05:08:18;-2.90;99.90
20594;DHT22;10455;48.732;10.266;2023-03-16T05:13:19;-2.90;99.90
20594;DHT22;10455;48.732;10.266;2023-03-16T05:18:23;-3.00;99.90
20594;DHT22;10455;48.732;10.266;2023-03-16T05:23:25;-3.00;99.90
20594;DHT22;10455;48.732;10.266;2023-03-16T05:28:27;-3.00;99.90
20594;DHT22;10455;48.732;10.266;2023-03-16T05:33:30;-3.00;99.90
20594;DHT22;10455;48.732;10.266;2023-03-16T05:38:32;-2.80;99.90
20594;DHT22;10455;48.732;10.266;2023-03-16T05:43:36;-2.70;99.90
20594;DHT22;10455;48.732;10.266;2023-03-16T05:48:39;-2.50;99.90
20594;DHT22;10455;48.732;10.266;2023-03-16T05:53:41;-2.30;99.90
20594;DHT22;10455;48.732;10.266;2023-03-16T05:58:46;-2.30;99.90
20594;DHT22;10455;48.732;10.266;2023-03-16T06:03:54;-2.00;99.90
20594;DHT22;10455;48.732;10.266;2023-03-16T06:08:56;-1.90;99.90
20594;DHT22;10455;48.732;10.266;2023-03-16T06:13:58;-1.80;99.90
20594;DHT22;10455;48.732;10.266;2023-03-16T06:19:02;-1.20;99.90
20594;DHT22;10455;48.732;10.266;2023-03-16T06:24:04;-0.80;99.90
20594;DHT22;10455;48.732;10.266;2023-03-16T06:29:08;-0.20;99.90
20594;DHT22;10455;48.732;10.266;2023-03-16T06:34:11;0.40;99.90
20594;DHT22;10455;48.732;10.266;2023-03-16T06:39:13;1.60;99.90
20594;DHT22;10455;48.732;10.266;2023-03-16T06:44:15;3.60;99.90
20594;DHT22;10455;48.732;10.266;2023-03-16T06:49:18;4.50;99.90
20594;DHT22;10455;48.732;10.266;2023-03-16T06:54:20;7.60;99.90
20594;DHT22;10455;48.732;10.266;2023-03-16T06:59:22;7.90;99.90
20594;DHT22;10455;48.732;10.266;2023-03-16T07:04:25;8.80;99.90
20594;DHT22;10455;48.732;10.266;2023-03-16T07:09:28;8.10;99.90
20594;DHT22;10455;48.732;10.266;2023-03-16T07:14:30;8.70;99.90
20594;DHT22;10455;48.732;10.266;2023-03-16T07:19:33;5.60;99.90
20594;DHT22;10455;48.732;10.266;2023-03-16T07:24:35;8.60;99.90
20594;DHT22;10455;48.732;10.266;2023-03-16T07:29:37;10.10;99.90
20594;DHT22;10455;48.732;10.266;2023-03-16T07:34:40;10.50;99.90
20594;DHT22;10455;48.732;10.266;2023-03-16T07:39:42;9.30;99.90
20594;DHT22;10455;48.732;10.266;2023-03-16T07:44:44;9.70;99.90
20594;DHT22;10455;48.732;10.266;2023-03-16T07:49:47;12.10;99.90
20594;DHT22;10455;48.732;10.266;2023-03-16T07:54:49;14.70;99.90
20594;DHT22;10455;48.732;10.266;2023-03-16T07:59:51;15.20;97.20
20594;DHT22;10455;48.732;10.266;2023-03-16T08:04:54;14.60;97.90
20594;DHT22;10455;48.732;10.266;2023-03-16T08:09:56;14.90;99.00
20594;DHT22;10455;48.732;10.266;2023-03-16T08:14:58;13.40;97.10
20594;DHT22;10455;48.732;10.266;2023-03-16T08:20:01;11.50;99.90
20594;DHT22;10455;48.732;10.266;2023-03-16T08:25:08;11.10;99.90
20594;DHT22;10455;48.732;10.266;2023-03-16T08:30:12;10.30;99.90
20594;DHT22;10455;48.732;10.266;2023-03-16T08:35:16;12.00;99.90
20594;DHT22;10455;48.732;10.266;2023-03-16T08:40:18;11.20;99.90
20594;DHT22;10455;48.732;10.266;2023-03-16T08:45:22;10.90;99.90
20594;DHT22;10455;48.732;10.266;2023-03-16T08:50:25;10.50;99.90
20594;DHT22;10455;48.732;10.266;2023-03-16T08:55:27;10.80;99.90
20594;DHT22;10455;48.732;10.266;2023-03-16T09:00:29;9.20;99.90
20594;DHT22;10455;48.732;10.266;2023-03-16T09:05:32;9.40;99.90
20594;DHT22;10455;48.732;10.266;2023-03-16T09:10:34;10.70;99.90
20594;DHT22;10455;48.732;10.266;2023-03-16T09:15:36;11.10;99.90
20594;DHT22;10455;48.732;10.266;2023-03-16T09:20:39;11.90;99.90
20594;DHT22;10455;48.732;10.266;2023-03-16T09:25:42;12.30;98.60
20594;DHT22;10455;48.732;10.266;2023-03-16T09:30:44;11.10;99.70
20594;DHT22;10455;48.732;10.266;2023-03-16T09:35:48;10.80;99.90
20594;DHT22;10455;48.732;10.266;2023-03-16T09:40:56;8.80;99.90
20594;DHT22;10455;48.732;10.266;2023-03-16T09:46:05;6.90;99.90
20594;DHT22;10455;48.732;10.266;2023-03-16T09:51:17;6.80;99.90
20594;DHT22;10455;48.732;10.266;2023-03-16T09:56:27;8.00;99.90
20594;DHT22;10455;48.732;10.266;2023-03-16T10:01:39;9.20;99.90
20594;DHT22;10455;48.732;10.266;2023-03-16T10:06:52;11.10;99.90
20594;DHT22;10455;48.732;10.266;2023-03-16T10:11:57;10.50;99.90
20594;DHT22;10455;48.732;10.266;2023-03-16T10:17:05;10.50;99.90
20594;DHT22;10455;48.732;10.266;2023-03-16T10:22:18;9.60;99.90
20594;DHT22;10455;48.732;10.266;2023-03-16T10:27:25;11.30;99.90
20594;DHT22;10455;48.732;10.266;2023-03-16T10:32:30;10.50;99.90
20594;DHT22;10455;48.732;10.266;2023-03-16T10:37:36;11.10;99.90
20594;DHT22;10455;48.732;10.266;2023-03-16T10:42:38;11.20;99.90
20594;DHT22;10455;48.732;10.266;2023-03-16T10:47:41;9.50;99.90
20594;DHT22;10455;48.732;10.266;2023-03-16T10:52:45;9.70;99.90
20594;DHT22;10455;48.732;10.266;2023-03-16T10:57:49;9.20;99.90
20594;DHT22;10455;48.732;10.266;2023-03-16T11:02:54;9.90;99.90
20594;DHT22;10455;48.732;10.266;2023-03-16T11:08:00;10.50;99.90
20594;DHT22;10455;48.732;10.266;2023-03-16T11:13:11;10.60;99.90
20594;DHT22;10455;48.732;10.266;2023-03-16T11:18:27;10.80;99.90
20594;DHT22;10455;48.732;10.266;2023-03-16T11:23:33;11.80;99.90
20594;DHT22;10455;48.732;10.266;2023-03-16T11:28:41;10.60;99.90
20594;DHT22;10455;48.732;10.266;2023-03-16T11:33:44;8.90;99.90
20594;DHT22;10455;48.732;10.266;2023-03-16T11:38:52;9.70;99.90
20594;DHT22;10455;48.732;10.266;2023-03-16T11:44:01;9.70;99.90
20594;DHT22;10455;48.732;10.266;2023-03-16T11:49:20;10.20;99.90
20594;DHT22;10455;48.732;10.266;2023-03-16T11:54:39;10.10;99.90
20594;DHT22;10455;48.732;10.266;2023-03-16T11:59:58;9.70;99.90
20594;DHT22;10455;48.732;10.266;2023-03-16T12:05:45;10.40;99.90
20594;DHT22;10455;48.732;10.266;2023-03-16T12:10:56;10.20;99.90
20594;DHT22;10455;48.732;10.266;2023-03-16T12:16:04;10.20;99.90
20594;DHT22;10455;48.732;10.266;2023-03-16T12:21:13;10.50;99.90
20594;DHT22;10455;48.732;10.266;2023-03-16T12:26:17;11.30;99.90
20594;DHT22;10455;48.732;10.266;2023-03-16T12:31:22;11.70;99.90
20594;DHT22;10455;48.732;10.266;2023-03-16T12:47:35;11.40;99.90
20594;DHT22;10455;48.732;10.266;2023-03-16T12:52:41;12.00;99.90
20594;DHT22;10455;48.732;10.266;2023-03-16T12:57:46;11.90;99.90
20594;DHT22;10455;48.732;10.266;2023-03-16T13:02:52;11.50;99.90
20594;DHT22;10455;48.732;10.266;2023-03-16T13:08:05;11.00;99.90
20594;DHT22;10455;48.732;10.266;2023-03-16T13:13:11;10.80;99.90
20594;DHT22;10455;48.732;10.266;2023-03-16T13:18:22;11.10;99.90
20594;DHT22;10455;48.732;10.266;2023-03-16T13:23:26;11.50;99.90
20594;DHT22;10455;48.732;10.266;2023-03-16T13:28:32;11.70;99.90
20594;DHT22;10455;48.732;10.266;2023-03-16T13:33:36;12.50;99.90
20594;DHT22;10455;48.732;10.266;2023-03-16T13:38:40;10.90;99.90
20594;DHT22;10455;48.732;10.266;2023-03-16T13:43:45;10.90;99.90
20594;DHT22;10455;48.732;10.266;2023-03-16T13:48:47;12.20;99.90
20594;DHT22;10455;48.732;10.266;2023-03-16T13:53:50;11.90;99.70
20594;DHT22;10455;48.732;10.266;2023-03-16T13:58:56;13.30;99.40
20594;DHT22;10455;48.732;10.266;2023-03-16T14:04:00;12.90;99.40
20594;DHT22;10455;48.732;10.266;2023-03-16T14:09:17;12.30;98.00
20594;DHT22;10455;48.732;10.266;2023-03-16T14:14:28;13.00;97.70
20594;DHT22;10455;48.732;10.266;2023-03-16T14:19:36;12.90;97.80
20594;DHT22;10455;48.732;10.266;2023-03-16T14:24:43;13.60;98.40
20594;DHT22;10455;48.732;10.266;2023-03-16T14:29:52;12.50;98.30
20594;DHT22;10455;48.732;10.266;2023-03-16T14:35:09;12.60;98.00
20594;DHT22;10455;48.732;10.266;2023-03-16T14:40:23;12.90;96.60
20594;DHT22;10455;48.732;10.266;2023-03-16T14:45:31;13.00;96.00
20594;DHT22;10455;48.732;10.266;2023-03-16T14:50:34;12.70;95.90
20594;DHT22;10455;48.732;10.266;2023-03-16T14:55:36;13.40;96.00
20594;DHT22;10455;48.732;10.266;2023-03-16T15:00:41;13.80;95.80
20594;DHT22;10455;48.732;10.266;2023-03-16T15:05:46;13.40;95.30
20594;DHT22;10455;48.732;10.266;2023-03-16T15:10:49;12.10;97.30
20594;DHT22;10455;48.732;10.266;2023-03-16T15:15:53;11.20;97.40
20594;DHT22;10455;48.732;10.266;2023-03-16T15:20:54;12.00;96.10
20594;DHT22;10455;48.732;10.266;2023-03-16T15:25:56;11.50;98.50
20594;DHT22;10455;48.732;10.266;2023-03-16T15:31:02;11.10;97.30
20594;DHT22;10455;48.732;10.266;2023-03-16T15:36:12;11.10;98.10
20594;DHT22;10455;48.732;10.266;2023-03-16T15:41:15;11.00;97.90
20594;DHT22;10455;48.732;10.266;2023-03-16T15:46:18;11.20;97.80
20594;DHT22;10455;48.732;10.266;2023-03-16T15:51:22;11.00;98.00
20594;DHT22;10455;48.732;10.266;2023-03-16T15:56:27;10.40;98.40
20594;DHT22;10455;48.732;10.266;2023-03-16T16:01:41;9.80;99.90
20594;DHT22;10455;48.732;10.266;2023-03-16T16:06:45;9.10;99.90
20594;DHT22;10455;48.732;10.266;2023-03-16T16:11:48;8.80;99.90
20594;DHT22;10455;48.732;10.266;2023-03-16T16:16:52;8.70;99.90
20594;DHT22;10455;48.732;10.266;2023-03-16T16:21:54;8.60;99.90
20594;DHT22;10455;48.732;10.266;2023-03-16T16:26:56;8.50;99.90
20594;DHT22;10455;48.732;10.266;2023-03-16T16:32:00;8.30;99.90
20594;DHT22;10455;48.732;10.266;2023-03-16T16:37:02;8.10;99.90
20594;DHT22;10455;48.732;10.266;2023-03-16T16:42:04;8.10;99.90
20594;DHT22;10455;48.732;10.266;2023-03-16T16:47:17;8.00;99.90
20594;DHT22;10455;48.732;10.266;2023-03-16T16:52:20;7.80;99.90
20594;DHT22;10455;48.732;10.266;2023-03-16T16:57:22;7.70;99.90
20594;DHT22;10455;48.732;10.266;2023-03-16T17:02:30;7.60;99.90
20594;DHT22;10455;48.732;10.266;2023-03-16T17:07:32;7.50;99.90
20594;DHT22;10455;48.732;10.266;2023-03-16T17:12:34;7.30;99.90
20594;DHT22;10455;48.732;10.266;2023-03-16T17:17:37;7.20;99.90
20594;DHT22;10455;48.732;10.266;2023-03-16T17:22:40;6.90;99.90
20594;DHT22;10455;48.732;10.266;2023-03-16T17:27:43;6.60;99.90
20594;DHT22;10455;48.732;10.266;2023-03-16T17:32:48;6.40;99.90
20594;DHT22;10455;48.732;10.266;2023-03-16T17:37:50;6.30;99.90
20594;DHT22;10455;48.732;10.266;2023-03-16T17:42:52;6.30;99.90
20594;DHT22;10455;48.732;10.266;2023-03-16T17:47:56;6.10;99.90
20594;DHT22;10455;48.732;10.266;2023-03-16T17:52:58;6.00;99.90
20594;DHT22;10455;48.732;10.266;2023-03-16T17:58:00;5.90;99.90
20594;DHT22;10455;48.732;10.266;2023-03-16T18:03:09;5.60;99.90
20594;DHT22;10455;48.732;10.266;2023-03-16T18:08:14;5.50;99.90
20594;DHT22;10455;48.732;10.266;2023-03-16T18:13:20;5.40;99.90
20594;DHT22;10455;48.732;10.266;2023-03-16T18:18:26;5.10;99.90
20594;DHT22;10455;48.732;10.266;2023-03-16T18:23:29;5.20;99.90
20594;DHT22;10455;48.732;10.266;2023-03-16T18:28:32;5.10;99.90
20594;DHT22;10455;48.732;10.266;2023-03-16T18:33:37;5.20;99.90
20594;DHT22;10455;48.732;10.266;2023-03-16T18:38:42;5.20;99.90
20594;DHT22;10455;48.732;10.266;2023-03-16T18:43:45;5.10;99.90
20594;DHT22;10455;48.732;10.266;2023-03-16T18:48:48;5.10;99.90
20594;DHT22;10455;48.732;10.266;2023-03-16T18:53:50;5.00;99.90
20594;DHT22;10455;48.732;10.266;2023-03-16T18:58:53;5.00;99.90
20594;DHT22;10455;48.732;10.266;2023-03-16T19:03:58;5.10;99.90
20594;DHT22;10455;48.732;10.266;2023-03-16T19:09:03;5.10;99.90
20594;DHT22;10455;48.732;10.266;2023-03-16T19:14:14;5.00;99.90
20594;DHT22;10455;48.732;10.266;2023-03-16T19:19:18;5.10;99.90
20594;DHT22;10455;48.732;10.266;2023-03-16T19:24:23;5.00;99.90
20594;DHT22;10455;48.732;10.266;2023-03-16T19:29:29;4.80;99.90
20594;DHT22;10455;48.732;10.266;2023-03-16T19:34:33;4.60;99.90
20594;DHT22;10455;48.732;10.266;2023-03-16T19:39:35;4.70;99.90
20594;DHT22;10455;48.732;10.266;2023-03-16T19:44:36;4.60;99.90
20594;DHT22;10455;48.732;10.266;2023-03-16T19:49:40;4.50;99.90
20594;DHT22;10455;48.732;10.266;2023-03-16T19:54:42;4.40;99.90
20594;DHT22;10455;48.732;10.266;2023-03-16T19:59:46;4.50;99.90
20594;DHT22;10455;48.732;10.266;2023-03-16T20:04:50;4.60;99.90
20594;DHT22;10455;48.732;10.266;2023-03-16T20:09:52;4.60;99.90
20594;DHT22;10455;48.732;10.266;2023-03-16T20:14:55;4.60;99.90
20594;DHT22;10455;48.732;10.266;2023-03-16T20:20:00;4.60;99.90
20594;DHT22;10455;48.732;10.266;2023-03-16T20:25:02;4.50;99.90
20594;DHT22;10455;48.732;10.266;2023-03-16T20:30:13;4.50;99.90
20594;DHT22;10455;48.732;10.266;2023-03-16T20:35:20;4.40;99.90
20594;DHT22;10455;48.732;10.266;2023-03-16T20:40:23;4.20;99.90
20594;DHT22;10455;48.732;10.266;2023-03-16T20:45:27;4.10;99.90
20594;DHT22;10455;48.732;10.266;2023-03-16T20:50:31;4.00;99.90
20594;DHT22;10455;48.732;10.266;2023-03-16T20:55:33;4.00;99.90
20594;DHT22;10455;48.732;10.266;2023-03-16T21:00:38;4.10;99.90
20594;DHT22;10455;48.732;10.266;2023-03-16T21:05:41;4.00;99.90
20594;DHT22;10455;48.732;10.266;2023-03-16T21:10:44;3.90;99.90
20594;DHT22;10455;48.732;10.266;2023-03-16T21:15:47;4.00;99.90
20594;DHT22;10455;48.732;10.266;2023-03-16T21:20:51;3.70;99.90
20594;DHT22;10455;48.732;10.266;2023-03-16T21:25:57;3.60;99.90
20594;DHT22;10455;48.732;10.266;2023-03-16T21:31:00;3.50;99.90
20594;DHT22;10455;48.732;10.266;2023-03-16T21:36:05;3.30;99.90
20594;DHT22;10455;48.732;10.266;2023-03-16T21:41:07;3.10;99.90
20594;DHT22;10455;48.732;10.266;2023-03-16T21:46:13;3.20;99.90
20594;DHT22;10455;48.732;10.266;2023-03-16T21:51:20;3.30;99.90
20594;DHT22;10455;48.732;10.266;2023-03-16T21:56:24;3.50;99.90
20594;DHT22;10455;48.732;10.266;2023-03-16T22:01:28;3.10;99.90
20594;DHT22;10455;48.732;10.266;2023-03-16T22:06:32;2.80;99.90
20594;DHT22;10455;48.732;10.266;2023-03-16T22:11:34;2.70;99.90
20594;DHT22;10455;48.732;10.266;2023-03-16T22:16:37;2.60;99.90
20594;DHT22;10455;48.732;10.266;2023-03-16T22:21:42;2.60;99.90
20594;DHT22;10455;48.732;10.266;2023-03-16T22:26:44;2.50;99.90
20594;DHT22;10455;48.732;10.266;2023-03-16T22:31:47;2.30;99.90
20594;DHT22;10455;48.732;10.266;2023-03-16T22:36:51;2.20;99.90
20594;DHT22;10455;48.732;10.266;2023-03-16T22:41:52;2.10;99.90
20594;DHT22;10455;48.732;10.266;2023-03-16T22:46:54;1.90;99.90
20594;DHT22;10455;48.732;10.266;2023-03-16T22:51:57;1.80;99.90
20594;DHT22;10455;48.732;10.266;2023-03-16T22:56:59;1.60;99.90
20594;DHT22;10455;48.732;10.266;2023-03-16T23:02:01;1.60;99.90
20594;DHT22;10455;48.732;10.266;2023-03-16T23:07:09;1.40;99.90
20594;DHT22;10455;48.732;10.266;2023-03-16T23:12:14;1.20;99.90
20594;DHT22;10455;48.732;10.266;2023-03-16T23:17:19;1.10;99.90
20594;DHT22;10455;48.732;10.266;2023-03-16T23:22:23;1.00;99.90
20594;DHT22;10455;48.732;10.266;2023-03-16T23:27:25;1.00;99.90
20594;DHT22;10455;48.732;10.266;2023-03-16T23:32:27;0.90;99.90
20594;DHT22;10455;48.732;10.266;2023-03-16T23:37:30;0.90;99.90
20594;DHT22;10455;48.732;10.266;2023-03-16T23:42:32;0.90;99.90
20594;DHT22;10455;48.732;10.266;2023-03-16T23:47:33;0.80;99.90
20594;DHT22;10455;48.732;10.266;2023-03-16T23:52:37;0.90;99.90
20594;DHT22;10455;48.732;10.266;2023-03-16T23:57:39;1.00;99.90
